Time;durP1;ratioP1;P1;durP2;ratioP2;P2;SDS_P1;SDS_P2;PMS_P1;PMS_P2;Temp;Humidity;BMP_temperature;BMP_pressure;BME280_temperature;BME280_humidity;BME280_pressure;Samples;Min_cycle;Max_cycle;Signal;HPM_P1;HPM_P2
2021/01/20 00:00:05;;;;;;;4.37;2.43;;;7.00;67.70;;;;;;5031922;28;20668;-48
2021/01/20 00:02:32;;;;;;;3.27;2.03;;;7.10;66.70;;;;;;5031954;28;20690;-48
2021/01/20 00:04:59;;;;;;;3.50;2.47;;;7.10;66.80;;;;;;5030647;28;20627;-48
2021/01/20 00:07:26;;;;;;;2.40;2.13;;;7.20;66.60;;;;;;5033793;28;20738;-48
2021/01/20 00:09:53;;;;;;;4.07;2.60;;;7.10;66.50;;;;;;5048811;28;20664;-48
2021/01/20 00:12:20;;;;;;;2.70;2.17;;;7.20;67.50;;;;;;5031436;28;20707;-48
2021/01/20 00:14:46;;;;;;;2.50;2.30;;;7.10;66.60;;;;;;5031116;28;20656;-49
2021/01/20 00:17:14;;;;;;;3.17;2.43;;;7.10;66.90;;;;;;5031530;28;20651;-49
2021/01/20 00:19:41;;;;;;;3.40;2.47;;;7.10;66.90;;;;;;5049772;28;20710;-49
2021/01/20 00:22:11;;;;;;;1.73;1.63;;;7.10;67.20;;;;;;5051053;28;21288;-49
2021/01/20 00:24:37;;;;;;;3.17;2.87;;;7.00;66.80;;;;;;5051151;28;20616;-49
2021/01/20 00:27:05;;;;;;;2.13;1.47;;;7.00;67.10;;;;;;5051135;28;21235;-49
2021/01/20 00:29:31;;;;;;;5.27;2.70;;;7.00;67.80;;;;;;5049361;28;20775;-49
2021/01/20 00:31:58;;;;;;;2.47;2.10;;;7.00;68.20;;;;;;5050855;28;20669;-49
2021/01/20 00:34:25;;;;;;;2.50;2.07;;;7.00;67.70;;;;;;5050702;28;20716;-49
2021/01/20 00:36:51;;;;;;;6.10;4.27;;;7.00;67.90;;;;;;5050781;28;20673;-49
2021/01/20 00:39:19;;;;;;;4.10;2.80;;;7.00;68.40;;;;;;5052708;28;20990;-49
2021/01/20 00:41:46;;;;;;;6.23;3.80;;;7.00;68.80;;;;;;5051157;28;20721;-49
2021/01/20 00:44:13;;;;;;;4.00;2.53;;;7.00;68.60;;;;;;5050404;28;21142;-49
2021/01/20 00:46:40;;;;;;;2.20;2.00;;;7.00;68.80;;;;;;5050167;28;20705;-48
2021/01/20 00:49:06;;;;;;;7.30;3.00;;;6.90;68.20;;;;;;5050305;28;20668;-49
2021/01/20 00:51:33;;;;;;;2.63;2.13;;;6.90;68.60;;;;;;5050808;28;20663;-49
2021/01/20 00:54:00;;;;;;;6.10;2.53;;;6.90;68.60;;;;;;5050204;28;20654;-49
2021/01/20 00:56:27;;;;;;;4.07;2.53;;;6.90;68.70;;;;;;5050647;28;20635;-49
2021/01/20 00:58:54;;;;;;;2.93;2.47;;;6.90;68.90;;;;;;5050857;28;20664;-49
2021/01/20 01:01:21;;;;;;;3.10;2.80;;;6.90;68.80;;;;;;5046802;28;20671;-50
2021/01/20 01:03:48;;;;;;;3.03;2.37;;;6.90;69.20;;;;;;5044585;28;20657;-49
2021/01/20 01:06:15;;;;;;;3.40;2.30;;;6.90;69.00;;;;;;5045058;28;21177;-49
2021/01/20 01:08:41;;;;;;;5.70;2.60;;;7.00;68.90;;;;;;5029985;28;20660;-49
2021/01/20 01:11:08;;;;;;;3.33;2.60;;;7.00;68.10;;;;;;5030519;28;20630;-49
2021/01/20 01:13:36;;;;;;;2.47;2.20;;;7.10;67.90;;;;;;5048595;28;21049;-49
2021/01/20 01:16:03;;;;;;;2.37;2.17;;;7.10;67.30;;;;;;5049739;28;20676;-49
2021/01/20 01:18:29;;;;;;;3.20;2.23;;;7.20;66.90;;;;;;5049994;28;20653;-49
2021/01/20 01:20:56;;;;;;;2.30;2.10;;;7.20;66.40;;;;;;5048933;28;20755;-50
2021/01/20 01:23:23;;;;;;;5.73;2.53;;;7.30;66.80;;;;;;5049236;28;20653;-49
2021/01/20 01:25:52;;;;;;;4.57;2.63;;;7.30;66.00;;;;;;5049962;28;21222;-49
2021/01/20 01:28:19;;;;;;;2.23;2.03;;;7.30;65.80;;;;;;5048706;28;20726;-49
2021/01/20 01:30:47;;;;;;;1.97;1.87;;;7.30;65.50;;;;;;5050159;28;21071;-50
2021/01/20 01:33:13;;;;;;;2.53;2.30;;;7.30;64.90;;;;;;5049308;28;20689;-49
2021/01/20 01:35:40;;;;;;;2.67;2.47;;;7.30;65.20;;;;;;5048856;28;20754;-48
2021/01/20 01:38:07;;;;;;;4.07;2.60;;;7.30;65.20;;;;;;5049954;28;20697;-49
2021/01/20 01:40:34;;;;;;;2.90;2.30;;;7.30;65.50;;;;;;5050702;28;21200;-50
2021/01/20 01:43:00;;;;;;;3.50;3.20;;;7.30;65.60;;;;;;5048972;28;20696;-52
2021/01/20 01:45:27;;;;;;;2.00;1.70;;;7.30;64.50;;;;;;5048377;28;20629;-49
2021/01/20 01:47:55;;;;;;;2.17;1.97;;;7.40;64.00;;;;;;5048847;28;21085;-49
2021/01/20 01:50:21;;;;;;;5.53;2.57;;;7.40;64.30;;;;;;5049028;28;20661;-49
2021/01/20 01:52:48;;;;;;;5.93;2.53;;;7.40;64.40;;;;;;5049714;28;20688;-48
2021/01/20 01:55:15;;;;;;;2.40;2.20;;;7.40;64.40;;;;;;5049305;28;20661;-47
2021/01/20 01:57:42;;;;;;;2.27;2.00;;;7.40;64.10;;;;;;5049169;28;20655;-47
2021/01/20 02:00:10;;;;;;;2.10;1.90;;;7.40;64.40;;;;;;5049512;28;20625;-48
2021/01/20 02:02:37;;;;;;;3.37;1.73;;;7.40;64.00;;;;;;5048978;28;20668;-48
2021/01/20 02:05:06;;;;;;;2.00;1.77;;;7.50;63.40;;;;;;5048955;28;20668;-49
2021/01/20 02:07:33;;;;;;;2.87;2.57;;;7.50;63.80;;;;;;5049241;28;20707;-49
2021/01/20 02:10:00;;;;;;;2.70;2.03;;;7.60;62.80;;;;;;5049423;28;20783;-49
2021/01/20 02:12:42;;;;;;;2.60;1.70;;;7.60;62.50;;;;;;5048239;28;20692;-49
2021/01/20 02:15:11;;;;;;;4.33;2.03;;;7.60;62.10;;;;;;5048856;28;20637;-49
2021/01/20 02:17:42;;;;;;;3.30;2.13;;;7.70;62.40;;;;;;5048469;28;20628;-49
2021/01/20 02:20:23;;;;;;;1.77;1.67;;;7.70;62.30;;;;;;5048408;28;20665;-49
2021/01/20 02:22:52;;;;;;;2.63;1.73;;;7.70;62.40;;;;;;5049164;28;20722;-49
2021/01/20 02:25:27;;;;;;;2.60;2.07;;;7.70;61.60;;;;;;5048999;28;20802;-49
2021/01/20 02:27:59;;;;;;;2.47;1.90;;;7.80;61.60;;;;;;5034071;28;20653;-49
2021/01/20 02:30:27;;;;;;;2.50;2.30;;;7.80;61.00;;;;;;5044056;28;20639;-47
2021/01/20 02:32:54;;;;;;;2.43;2.00;;;7.80;60.40;;;;;;5052902;28;20815;-49
2021/01/20 02:35:21;;;;;;;2.10;1.90;;;7.90;60.40;;;;;;5053327;28;20693;-48
2021/01/20 02:37:48;;;;;;;2.00;1.80;;;7.90;60.30;;;;;;5052034;28;20653;-49
2021/01/20 02:40:15;;;;;;;1.60;1.50;;;7.90;60.60;;;;;;5052652;28;20654;-49
2021/01/20 02:42:44;;;;;;;2.13;1.90;;;7.90;60.00;;;;;;5034149;28;20665;-49
2021/01/20 02:45:11;;;;;;;3.03;2.10;;;7.90;59.80;;;;;;5052325;28;20712;-49
2021/01/20 02:47:39;;;;;;;2.77;2.30;;;7.90;59.60;;;;;;5052004;28;20708;-49
2021/01/20 02:50:06;;;;;;;1.53;1.43;;;8.00;59.50;;;;;;5052929;28;20660;-49
2021/01/20 02:52:37;;;;;;;2.70;2.13;;;8.00;59.00;;;;;;5052767;28;20699;-49
2021/01/20 02:55:04;;;;;;;2.40;1.50;;;8.00;58.80;;;;;;5050832;28;20625;-49
2021/01/20 02:57:32;;;;;;;1.87;1.57;;;8.00;58.60;;;;;;5052823;28;20676;-49
2021/01/20 02:59:59;;;;;;;1.07;1.03;;;8.00;58.40;;;;;;5053233;28;20656;-49
2021/01/20 03:02:26;;;;;;;2.10;1.57;;;8.00;58.10;;;;;;5053016;28;20704;-49
2021/01/20 03:04:54;;;;;;;2.10;1.70;;;8.10;58.30;;;;;;5052504;28;20679;-50
2021/01/20 03:07:20;;;;;;;1.60;1.47;;;8.10;58.20;;;;;;5052031;28;21095;-49
2021/01/20 03:09:47;;;;;;;5.40;2.90;;;8.10;58.20;;;;;;5052004;28;20637;-49
2021/01/20 03:12:14;;;;;;;2.13;1.20;;;8.10;57.70;;;;;;5052106;28;20701;-48
2021/01/20 03:14:41;;;;;;;1.97;1.73;;;8.20;58.40;;;;;;5051907;28;20668;-49
2021/01/20 03:17:08;;;;;;;1.80;1.70;;;8.20;57.80;;;;;;5051781;28;20668;-48
2021/01/20 03:19:34;;;;;;;2.13;1.60;;;8.20;57.90;;;;;;5052420;28;20653;-48
2021/01/20 03:22:02;;;;;;;4.60;2.33;;;8.20;58.10;;;;;;5051775;28;20713;-48
2021/01/20 03:24:29;;;;;;;2.03;1.87;;;8.10;58.40;;;;;;5051316;28;20680;-49
2021/01/20 03:26:56;;;;;;;2.20;1.97;;;8.10;58.20;;;;;;5051601;28;20710;-48
2021/01/20 03:29:22;;;;;;;2.90;2.03;;;8.20;58.10;;;;;;5051472;28;20661;-48
2021/01/20 03:31:49;;;;;;;3.13;1.83;;;8.20;58.10;;;;;;5052015;28;20694;-49
2021/01/20 03:34:16;;;;;;;2.10;1.90;;;8.20;58.00;;;;;;5051941;28;20665;-48
2021/01/20 03:36:42;;;;;;;3.70;2.00;;;8.20;58.00;;;;;;5051188;28;21158;-49
2021/01/20 03:39:10;;;;;;;3.77;2.23;;;8.20;57.90;;;;;;5051864;28;20639;-49
2021/01/20 03:41:37;;;;;;;3.13;2.27;;;8.20;57.70;;;;;;5051800;28;20661;-49
2021/01/20 03:44:04;;;;;;;3.93;1.50;;;8.20;57.50;;;;;;5050673;28;20652;-49
2021/01/20 03:46:31;;;;;;;1.90;1.73;;;8.20;57.60;;;;;;5049949;28;21040;-49
2021/01/20 03:48:57;;;;;;;4.30;1.50;;;8.20;57.60;;;;;;5050877;28;20657;-49
2021/01/20 03:51:28;;;;;;;2.20;1.90;;;8.10;57.50;;;;;;5051944;28;20985;-48
2021/01/20 03:53:54;;;;;;;3.63;1.40;;;8.10;57.80;;;;;;5050683;28;20701;-48
2021/01/20 03:56:22;;;;;;;1.70;1.60;;;8.10;57.50;;;;;;5053079;28;20943;-49
2021/01/20 03:58:49;;;;;;;1.43;1.33;;;8.20;57.60;;;;;;5050598;28;21008;-49
2021/01/20 04:01:15;;;;;;;3.23;2.20;;;8.10;57.80;;;;;;5051777;28;20664;-49
2021/01/20 04:03:42;;;;;;;2.53;2.13;;;8.10;58.40;;;;;;5051514;28;20783;-49
2021/01/20 04:06:09;;;;;;;1.43;1.33;;;8.10;58.10;;;;;;5051365;28;20667;-48
2021/01/20 04:08:36;;;;;;;2.87;2.50;;;8.00;58.00;;;;;;5045418;28;20685;-48
2021/01/20 04:11:02;;;;;;;2.67;2.43;;;8.00;57.90;;;;;;5032118;28;20661;-48
2021/01/20 04:13:30;;;;;;;7.13;2.37;;;8.00;57.90;;;;;;5044802;28;20695;-48
2021/01/20 04:15:57;;;;;;;2.07;1.93;;;8.00;57.80;;;;;;5051072;28;21016;-48
2021/01/20 04:18:23;;;;;;;2.77;2.30;;;8.10;57.90;;;;;;5050778;28;20668;-48
2021/01/20 04:20:50;;;;;;;2.30;2.10;;;8.10;57.80;;;;;;5051477;28;20652;-47
2021/01/20 04:23:17;;;;;;;4.90;2.80;;;8.10;58.00;;;;;;5051235;28;20685;-48
2021/01/20 04:25:44;;;;;;;2.80;1.53;;;8.00;57.70;;;;;;5050756;28;20652;-48
2021/01/20 04:28:12;;;;;;;2.43;1.97;;;8.00;58.00;;;;;;5051544;28;20653;-48
2021/01/20 04:30:39;;;;;;;2.77;2.50;;;8.00;58.20;;;;;;5050356;28;21192;-48
2021/01/20 04:33:06;;;;;;;2.93;2.00;;;8.00;57.90;;;;;;5051278;28;20653;-48
2021/01/20 04:35:33;;;;;;;2.43;1.90;;;8.00;57.80;;;;;;5051013;28;20630;-48
2021/01/20 04:38:01;;;;;;;3.40;1.70;;;8.00;58.00;;;;;;5050840;28;21209;-49
2021/01/20 04:40:27;;;;;;;1.77;1.67;;;8.00;58.10;;;;;;5049851;28;20665;-49
2021/01/20 04:42:55;;;;;;;4.77;2.53;;;8.00;58.10;;;;;;5050692;28;20678;-49
2021/01/20 04:45:22;;;;;;;2.17;1.97;;;8.00;58.10;;;;;;5050645;28;20635;-49
2021/01/20 04:47:51;;;;;;;3.00;2.10;;;8.00;58.10;;;;;;5050690;28;20685;-48
2021/01/20 04:50:18;;;;;;;3.10;2.57;;;8.00;58.10;;;;;;5050106;28;20629;-48
2021/01/20 04:52:46;;;;;;;3.70;2.20;;;8.00;58.50;;;;;;5050837;28;21185;-48
2021/01/20 04:55:13;;;;;;;2.00;1.53;;;8.00;58.20;;;;;;5050338;28;20619;-49
2021/01/20 04:57:40;;;;;;;2.33;2.07;;;8.00;58.20;;;;;;5050230;28;20654;-49
2021/01/20 05:00:08;;;;;;;2.40;2.10;;;8.00;58.30;;;;;;5050266;28;20660;-48
2021/01/20 05:02:34;;;;;;;3.63;2.20;;;8.00;58.00;;;;;;5050106;28;20692;-48
2021/01/20 05:05:04;;;;;;;3.93;2.57;;;8.00;58.10;;;;;;5050224;28;20988;-47
2021/01/20 05:07:30;;;;;;;2.53;2.03;;;8.10;58.20;;;;;;5039568;28;20729;-48
2021/01/20 05:09:57;;;;;;;2.77;1.80;;;8.10;58.00;;;;;;5030256;28;20665;-48
2021/01/20 05:12:37;;;;;;;2.63;1.97;;;8.10;57.80;;;;;;5030075;28;20685;-48
2021/01/20 05:15:05;;;;;;;1.80;1.70;;;8.20;57.80;;;;;;5041084;28;21214;-48
2021/01/20 05:17:32;;;;;;;3.53;2.03;;;8.20;57.40;;;;;;5031994;28;20699;-48
2021/01/20 05:19:59;;;;;;;5.23;1.70;;;8.20;57.30;;;;;;5048940;28;20660;-47
2021/01/20 05:22:27;;;;;;;2.00;1.90;;;8.20;57.00;;;;;;5049965;28;20672;-47
2021/01/20 05:25:00;;;;;;;2.00;1.83;;;8.30;57.10;;;;;;5040105;28;20684;-48
2021/01/20 05:27:28;;;;;;;2.33;2.13;;;8.20;57.20;;;;;;5024975;28;20749;-48
2021/01/20 05:29:59;;;;;;;2.70;1.47;;;8.30;57.30;;;;;;5041808;28;20629;-48
2021/01/20 05:32:25;;;;;;;1.90;1.80;;;8.30;57.30;;;;;;5050016;28;20708;-48
2021/01/20 05:34:59;;;;;;;2.50;1.60;;;8.30;57.60;;;;;;5030338;28;20634;-48
2021/01/20 05:37:27;;;;;;;5.30;2.10;;;8.20;57.50;;;;;;5042120;28;20658;-48
2021/01/20 05:40:06;;;;;;;4.00;1.90;;;8.20;57.40;;;;;;5037146;28;20627;-48
2021/01/20 05:42:42;;;;;;;1.93;1.50;;;8.30;57.30;;;;;;5041945;28;20658;-48
2021/01/20 05:45:10;;;;;;;3.07;2.40;;;8.30;57.10;;;;;;5029455;28;20665;-47
2021/01/20 05:47:37;;;;;;;2.23;2.03;;;8.30;57.00;;;;;;5037870;28;20712;-48
2021/01/20 05:50:05;;;;;;;5.20;1.70;;;8.40;57.20;;;;;;5049277;28;20622;-49
2021/01/20 05:52:33;;;;;;;2.70;2.00;;;8.40;56.50;;;;;;5045698;28;21007;-48
2021/01/20 05:55:03;;;;;;;3.90;2.37;;;8.40;56.50;;;;;;5030079;28;20733;-48
2021/01/20 05:57:30;;;;;;;2.90;1.80;;;8.40;56.30;;;;;;5035882;28;20654;-48
2021/01/20 05:59:57;;;;;;;2.83;2.00;;;8.50;56.60;;;;;;5049498;28;20656;-48
2021/01/20 06:02:24;;;;;;;2.53;1.70;;;8.50;56.30;;;;;;5038011;28;21038;-48
2021/01/20 06:04:50;;;;;;;2.63;1.60;;;8.50;56.10;;;;;;5011896;28;20619;-48
2021/01/20 06:07:17;;;;;;;2.10;1.70;;;8.60;55.90;;;;;;5039447;28;20723;-49
2021/01/20 06:09:45;;;;;;;2.03;1.30;;;8.60;55.80;;;;;;5030925;28;20708;-49
2021/01/20 06:12:13;;;;;;;1.53;1.43;;;8.50;55.90;;;;;;5039809;28;20723;-49
2021/01/20 06:14:40;;;;;;;1.63;1.30;;;8.50;55.60;;;;;;5049324;28;20665;-49
2021/01/20 06:17:14;;;;;;;4.10;2.00;;;8.50;55.50;;;;;;5049298;28;20657;-50
2021/01/20 06:19:45;;;;;;;2.47;1.63;;;8.50;55.40;;;;;;5047975;28;20653;-49
2021/01/20 06:22:12;;;;;;;2.43;1.80;;;8.60;55.30;;;;;;5049668;28;21212;-49
2021/01/20 06:24:40;;;;;;;2.37;1.97;;;8.50;55.30;;;;;;5049215;28;20622;-48
2021/01/20 06:27:12;;;;;;;1.50;1.40;;;8.50;55.50;;;;;;5030780;28;20655;-48
2021/01/20 06:29:41;;;;;;;2.80;2.30;;;8.50;55.50;;;;;;5047422;28;20654;-48
2021/01/20 06:32:08;;;;;;;2.80;2.60;;;8.50;55.60;;;;;;5051963;28;21246;-48
2021/01/20 06:34:34;;;;;;;2.77;2.10;;;8.50;55.70;;;;;;5049025;28;20665;-49
2021/01/20 06:37:01;;;;;;;3.50;1.73;;;8.50;55.90;;;;;;5041318;28;20670;-49
2021/01/20 06:39:32;;;;;;;1.87;1.40;;;8.50;55.60;;;;;;5029282;28;20661;-48
2021/01/20 06:41:59;;;;;;;1.90;1.37;;;8.50;55.70;;;;;;5034701;28;20657;-49
2021/01/20 06:44:27;;;;;;;5.50;2.10;;;8.50;55.40;;;;;;5041910;28;21141;-48
2021/01/20 06:47:04;;;;;;;3.00;1.97;;;8.60;55.40;;;;;;5049116;28;20657;-49
2021/01/20 06:49:32;;;;;;;5.07;2.37;;;8.60;55.20;;;;;;5049369;28;21069;-49
2021/01/20 06:52:09;;;;;;;2.70;1.83;;;8.70;55.50;;;;;;5049540;28;20752;-49
2021/01/20 06:54:41;;;;;;;2.57;1.67;;;8.80;54.70;;;;;;5049411;28;20985;-48
2021/01/20 06:57:29;;;;;;;3.87;2.40;;;8.80;54.20;;;;;;5049497;28;20706;-48
2021/01/20 07:00:14;;;;;;;2.03;1.67;;;8.90;53.80;;;;;;5049534;28;20686;-48
2021/01/20 07:03:02;;;;;;;2.03;1.80;;;8.90;54.40;;;;;;5049571;28;20665;-49
2021/01/20 07:05:33;;;;;;;2.90;1.60;;;8.90;53.90;;;;;;5048798;28;21264;-49
2021/01/20 07:08:00;;;;;;;1.63;1.20;;;9.00;53.70;;;;;;5049330;28;21282;-49
2021/01/20 07:10:27;;;;;;;2.70;1.97;;;9.00;53.90;;;;;;5049461;28;20625;-49
2021/01/20 07:13:16;;;;;;;2.23;2.00;;;9.10;53.60;;;;;;5049288;28;20654;-50
2021/01/20 07:15:48;;;;;;;2.43;1.90;;;9.10;53.20;;;;;;5052919;28;20648;-50
2021/01/20 07:18:16;;;;;;;2.10;1.90;;;9.10;53.50;;;;;;5052859;28;20718;-49
2021/01/20 07:20:43;;;;;;;2.57;1.73;;;9.10;52.90;;;;;;5034777;28;20654;-49
2021/01/20 07:23:10;;;;;;;1.97;1.77;;;9.20;53.00;;;;;;5052499;28;20692;-50
2021/01/20 07:25:37;;;;;;;2.87;1.53;;;9.20;53.20;;;;;;5051867;28;20660;-50
2021/01/20 07:28:04;;;;;;;4.00;2.07;;;9.20;53.10;;;;;;5051954;28;20693;-50
2021/01/20 07:30:32;;;;;;;2.13;1.80;;;9.20;53.30;;;;;;5052858;28;20641;-50
2021/01/20 07:32:59;;;;;;;2.67;1.70;;;9.30;52.30;;;;;;5052210;28;20646;-50
2021/01/20 07:35:27;;;;;;;2.63;1.37;;;9.30;52.50;;;;;;5051718;28;20661;-49
2021/01/20 07:38:00;;;;;;;1.77;1.67;;;9.30;52.10;;;;;;5032566;28;20630;-49
2021/01/20 07:40:31;;;;;;;2.40;1.47;;;9.30;52.20;;;;;;5032310;28;20637;-49
2021/01/20 07:42:58;;;;;;;1.77;1.63;;;9.40;51.80;;;;;;5031890;28;20694;-49
2021/01/20 07:45:36;;;;;;;2.63;1.83;;;9.40;51.60;;;;;;5032004;28;20662;-49
2021/01/20 07:48:05;;;;;;;2.27;1.70;;;9.40;51.80;;;;;;5034611;28;20697;-50
2021/01/20 07:50:42;;;;;;;1.97;1.77;;;9.40;51.90;;;;;;5052341;28;20664;-50
2021/01/20 07:53:16;;;;;;;4.10;1.57;;;9.50;52.00;;;;;;5052043;28;20689;-49
2021/01/20 07:55:42;;;;;;;4.13;2.77;;;9.40;52.70;;;;;;5051893;28;20661;-49
2021/01/20 07:58:09;;;;;;;5.17;2.00;;;9.50;52.00;;;;;;5051853;28;20925;-49
2021/01/20 08:00:44;;;;;;;2.60;2.00;;;9.50;52.20;;;;;;5051956;28;20661;-49
2021/01/20 08:03:13;;;;;;;2.27;2.03;;;9.50;53.00;;;;;;5051940;28;20647;-49
2021/01/20 08:05:42;;;;;;;3.83;2.40;;;9.50;51.80;;;;;;5051994;28;20717;-49
2021/01/20 08:08:10;;;;;;;2.17;1.33;;;9.50;52.10;;;;;;5051704;28;21057;-49
2021/01/20 08:10:37;;;;;;;3.60;2.10;;;9.60;51.90;;;;;;5051886;28;20699;-49
2021/01/20 08:13:03;;;;;;;2.50;1.73;;;9.60;52.70;;;;;;5051688;28;20645;-49
2021/01/20 08:15:33;;;;;;;2.63;1.90;;;9.50;52.60;;;;;;5051725;28;20622;-49
2021/01/20 08:18:00;;;;;;;4.27;2.00;;;9.60;53.20;;;;;;5051320;28;20625;-49
2021/01/20 08:20:32;;;;;;;1.93;1.67;;;9.50;52.30;;;;;;5050862;28;21034;-49
2021/01/20 08:22:59;;;;;;;1.90;1.70;;;9.60;52.10;;;;;;5050913;28;21182;-55
2021/01/20 08:25:26;;;;;;;4.13;1.93;;;9.60;52.20;;;;;;5050592;28;20646;-50
2021/01/20 08:27:53;;;;;;;2.40;2.10;;;9.60;53.10;;;;;;5050948;28;21298;-50
2021/01/20 08:30:30;;;;;;;4.80;2.00;;;9.60;52.40;;;;;;5046737;28;20651;-48
2021/01/20 08:32:57;;;;;;;1.40;1.30;;;9.60;52.70;;;;;;5030914;28;20666;-50
2021/01/20 08:35:28;;;;;;;3.30;2.07;;;9.60;52.20;;;;;;5030829;28;20674;-49
2021/01/20 08:37:56;;;;;;;5.13;2.17;;;9.60;52.10;;;;;;5045590;28;20684;-49
2021/01/20 08:40:23;;;;;;;2.17;1.63;;;9.60;52.30;;;;;;5051372;28;20630;-50
2021/01/20 08:42:49;;;;;;;5.50;2.20;;;9.50;52.80;;;;;;5050237;28;20650;-49
2021/01/20 08:45:17;;;;;;;2.10;1.03;;;9.60;52.70;;;;;;5050860;28;20661;-48
2021/01/20 08:47:55;;;;;;;5.63;2.17;;;9.60;52.90;;;;;;5032589;28;20658;-48
2021/01/20 08:50:33;;;;;;;3.13;1.87;;;9.60;53.00;;;;;;5051102;28;20680;-48
2021/01/20 08:53:02;;;;;;;1.27;1.17;;;9.60;52.60;;;;;;5050764;28;20658;-48
2021/01/20 08:55:29;;;;;;;5.57;1.60;;;9.60;52.60;;;;;;5050402;28;20684;-49
2021/01/20 08:58:21;;;;;;;4.20;1.83;;;9.60;52.70;;;;;;5050931;28;20697;-48
2021/01/20 09:00:50;;;;;;;3.90;1.80;;;9.50;52.50;;;;;;5050605;28;20663;-49
2021/01/20 09:03:17;;;;;;;2.77;2.10;;;9.50;52.60;;;;;;5050777;28;20657;-48
2021/01/20 09:05:45;;;;;;;2.10;1.90;;;9.50;52.80;;;;;;5050584;28;20657;-49
2021/01/20 09:08:13;;;;;;;1.93;1.83;;;9.50;52.70;;;;;;5034683;28;20650;-48
2021/01/20 09:10:40;;;;;;;2.83;1.67;;;9.50;53.10;;;;;;5052674;28;20983;-48
2021/01/20 09:13:07;;;;;;;3.57;1.80;;;9.60;52.60;;;;;;5032738;28;20731;-48
2021/01/20 09:15:33;;;;;;;2.47;2.27;;;9.60;52.60;;;;;;5052225;28;20633;-50
2021/01/20 09:18:00;;;;;;;2.53;2.20;;;9.60;52.90;;;;;;5050516;28;20902;-49
2021/01/20 09:20:27;;;;;;;1.80;1.70;;;9.60;53.00;;;;;;5050199;28;21200;-49
2021/01/20 09:22:54;;;;;;;2.10;1.57;;;9.70;53.60;;;;;;5050088;28;20682;-48
2021/01/20 09:25:22;;;;;;;3.00;2.17;;;9.70;53.70;;;;;;5049874;28;20665;-49
2021/01/20 09:27:48;;;;;;;2.20;2.00;;;9.80;52.90;;;;;;5050377;28;20650;-50
2021/01/20 09:30:16;;;;;;;1.70;1.60;;;9.90;52.70;;;;;;5046013;28;20658;-49
2021/01/20 09:32:42;;;;;;;2.20;1.50;;;9.90;53.30;;;;;;5029376;28;20698;-49
2021/01/20 09:35:11;;;;;;;2.27;1.90;;;9.90;52.70;;;;;;5029809;28;20643;-49
2021/01/20 09:37:38;;;;;;;2.70;1.80;;;10.00;52.00;;;;;;5045912;28;20777;-49
2021/01/20 09:40:07;;;;;;;5.50;2.00;;;10.00;52.40;;;;;;5049776;28;20970;-49
2021/01/20 09:42:35;;;;;;;2.73;1.90;;;10.00;52.60;;;;;;5049090;28;21059;-48
2021/01/20 09:45:02;;;;;;;2.67;2.00;;;10.10;52.60;;;;;;5031737;28;20703;-48
2021/01/20 09:47:29;;;;;;;2.60;1.90;;;10.20;52.50;;;;;;5049398;28;20657;-48
2021/01/20 09:49:56;;;;;;;5.70;2.00;;;10.20;53.00;;;;;;5049668;28;21009;-48
2021/01/20 09:52:25;;;;;;;3.67;3.00;;;10.20;53.00;;;;;;5031499;28;21081;-47
2021/01/20 09:54:55;;;;;;;2.20;1.60;;;10.30;52.90;;;;;;5031130;28;21213;-48
2021/01/20 09:57:22;;;;;;;1.80;1.70;;;10.30;52.90;;;;;;5048730;28;20654;-48
2021/01/20 09:59:50;;;;;;;1.93;1.83;;;10.40;52.80;;;;;;5049320;28;20921;-48
2021/01/20 10:02:17;;;;;;;4.50;2.00;;;10.40;53.10;;;;;;5049298;28;21229;-49
2021/01/20 10:04:45;;;;;;;3.17;1.90;;;10.50;52.90;;;;;;5049854;28;20656;-49
2021/01/20 10:07:12;;;;;;;4.20;2.00;;;10.50;53.10;;;;;;5049348;28;20760;-49
2021/01/20 10:09:39;;;;;;;1.90;1.47;;;10.70;53.10;;;;;;5049200;28;20708;-49
2021/01/20 10:12:07;;;;;;;1.60;1.27;;;10.70;52.80;;;;;;5049333;28;20712;-49
2021/01/20 10:14:34;;;;;;;2.30;2.10;;;10.70;52.80;;;;;;5048272;28;20676;-49
2021/01/20 10:17:02;;;;;;;4.20;1.90;;;10.60;52.80;;;;;;5049838;28;20667;-48
2021/01/20 10:19:28;;;;;;;3.50;2.07;;;10.70;53.00;;;;;;5049944;28;20650;-50
2021/01/20 10:21:55;;;;;;;1.57;1.47;;;10.80;53.50;;;;;;5049408;28;20693;-49
2021/01/20 10:24:22;;;;;;;2.33;2.00;;;10.80;53.10;;;;;;5049264;28;20761;-49
2021/01/20 10:26:49;;;;;;;1.93;1.70;;;10.90;52.70;;;;;;5049401;28;20629;-48
2021/01/20 10:29:16;;;;;;;3.47;2.10;;;10.90;52.30;;;;;;5049236;28;21253;-49
2021/01/20 10:31:42;;;;;;;4.63;2.33;;;10.90;52.70;;;;;;5049285;28;20690;-49
2021/01/20 10:34:11;;;;;;;2.60;2.27;;;10.90;52.80;;;;;;5049626;28;20633;-48
2021/01/20 10:36:38;;;;;;;4.17;2.70;;;10.90;53.00;;;;;;5049681;28;20634;-48
2021/01/20 10:39:05;;;;;;;2.20;2.03;;;10.90;52.70;;;;;;5049106;28;20625;-48
2021/01/20 10:41:32;;;;;;;3.13;2.50;;;10.90;53.00;;;;;;5049013;28;20654;-48
2021/01/20 10:43:58;;;;;;;2.53;2.10;;;11.00;53.40;;;;;;5048709;28;20939;-48
2021/01/20 10:46:26;;;;;;;4.97;2.03;;;11.10;53.40;;;;;;5049470;28;20995;-49
2021/01/20 10:48:53;;;;;;;3.90;2.03;;;11.10;52.80;;;;;;5051456;28;20694;-48
2021/01/20 10:51:21;;;;;;;4.70;2.80;;;11.10;52.60;;;;;;5052706;28;20695;-48
2021/01/20 10:53:48;;;;;;;3.90;2.43;;;11.10;52.70;;;;;;5053201;28;20646;-48
2021/01/20 10:56:15;;;;;;;4.67;2.40;;;11.10;52.90;;;;;;5053357;28;20718;-49
2021/01/20 10:58:41;;;;;;;3.50;2.63;;;11.10;52.70;;;;;;5053162;28;20645;-48
2021/01/20 11:01:08;;;;;;;4.20;1.90;;;11.10;53.60;;;;;;5052289;28;20657;-48
2021/01/20 11:03:35;;;;;;;5.63;2.33;;;11.20;53.60;;;;;;5052809;28;20646;-49
2021/01/20 11:06:02;;;;;;;3.20;2.37;;;11.30;53.30;;;;;;5052287;28;21173;-48
2021/01/20 11:08:30;;;;;;;2.70;1.93;;;11.30;53.00;;;;;;5052670;28;20697;-49
2021/01/20 11:10:56;;;;;;;4.63;2.37;;;11.30;52.50;;;;;;5052494;28;20622;-49
2021/01/20 11:13:23;;;;;;;1.73;1.30;;;11.30;52.60;;;;;;5052126;28;20668;-49
2021/01/20 11:15:50;;;;;;;3.80;2.40;;;11.30;52.70;;;;;;5052226;28;21005;-49
2021/01/20 11:18:18;;;;;;;3.60;1.70;;;11.30;53.10;;;;;;5052646;28;20745;-49
2021/01/20 11:20:45;;;;;;;2.23;1.80;;;11.20;52.90;;;;;;5034455;28;21255;-49
2021/01/20 11:23:13;;;;;;;4.40;2.13;;;11.20;53.20;;;;;;5052298;28;20719;-49
2021/01/20 11:25:43;;;;;;;5.60;1.63;;;11.20;53.10;;;;;;5051751;28;20706;-50
2021/01/20 11:28:10;;;;;;;2.60;2.27;;;11.20;53.10;;;;;;5052282;28;20629;-50
2021/01/20 11:30:37;;;;;;;2.30;2.10;;;11.30;53.10;;;;;;5052227;28;20673;-50
2021/01/20 11:33:04;;;;;;;1.60;1.30;;;11.30;52.90;;;;;;5051719;28;20967;-49
2021/01/20 11:35:31;;;;;;;4.10;2.40;;;11.30;52.50;;;;;;5052049;28;20622;-50
2021/01/20 11:37:58;;;;;;;2.40;1.83;;;11.40;53.40;;;;;;5051459;28;20665;-49
2021/01/20 11:40:25;;;;;;;4.50;2.50;;;11.40;52.90;;;;;;5052472;28;20753;-49
2021/01/20 11:42:57;;;;;;;3.00;2.47;;;11.30;52.70;;;;;;5052225;28;21278;-49
2021/01/20 11:45:25;;;;;;;3.53;2.13;;;11.40;53.00;;;;;;5052314;28;20629;-50
2021/01/20 11:47:52;;;;;;;2.57;1.63;;;11.40;53.00;;;;;;5051668;28;20996;-49
2021/01/20 11:50:19;;;;;;;3.07;2.17;;;11.40;52.60;;;;;;5051940;28;21338;-50
2021/01/20 11:52:46;;;;;;;2.13;1.33;;;11.40;52.70;;;;;;5052649;28;20692;-49
2021/01/20 11:55:13;;;;;;;3.47;2.00;;;11.50;52.60;;;;;;5052481;28;20629;-48
2021/01/20 11:57:40;;;;;;;5.73;2.30;;;11.40;52.20;;;;;;5052007;28;20699;-50
2021/01/20 12:00:09;;;;;;;4.20;1.60;;;11.50;52.20;;;;;;5050825;28;20652;-48
2021/01/20 12:02:36;;;;;;;4.00;2.10;;;11.50;52.60;;;;;;5051770;28;20669;-49
2021/01/20 12:05:05;;;;;;;2.80;1.83;;;11.50;52.50;;;;;;5051791;28;20668;-49
2021/01/20 12:07:32;;;;;;;1.93;1.70;;;11.60;52.30;;;;;;5051612;28;20633;-49
2021/01/20 12:09:58;;;;;;;2.47;2.00;;;11.70;52.00;;;;;;5050607;28;20654;-50
2021/01/20 12:12:25;;;;;;;2.83;1.40;;;11.70;52.00;;;;;;5052345;28;21056;-49
2021/01/20 12:14:52;;;;;;;1.60;1.47;;;11.70;52.00;;;;;;5052235;28;20626;-48
2021/01/20 12:17:20;;;;;;;1.83;1.73;;;11.70;52.00;;;;;;5051607;28;21258;-48
2021/01/20 12:19:46;;;;;;;19.77;2.23;;;11.70;52.10;;;;;;5052175;28;20625;-49
2021/01/20 12:22:13;;;;;;;2.93;2.60;;;11.80;52.00;;;;;;5051733;28;20656;-50
2021/01/20 12:24:40;;;;;;;3.43;1.50;;;11.80;51.80;;;;;;5051911;28;20633;-50
2021/01/20 12:27:07;;;;;;;2.73;2.30;;;11.90;52.10;;;;;;5033864;28;20664;-50
2021/01/20 12:29:34;;;;;;;3.20;2.27;;;11.90;52.00;;;;;;5033850;28;20715;-49
2021/01/20 12:32:00;;;;;;;2.77;2.20;;;11.90;51.90;;;;;;5051654;28;21283;-50
2021/01/20 12:34:28;;;;;;;2.70;1.77;;;12.00;51.90;;;;;;5051148;28;20650;-49
2021/01/20 12:36:55;;;;;;;2.93;1.50;;;12.10;51.50;;;;;;5052043;28;20618;-50
2021/01/20 12:39:22;;;;;;;1.83;1.70;;;12.20;51.40;;;;;;5052221;28;20718;-50
2021/01/20 12:41:49;;;;;;;2.63;2.17;;;12.20;51.40;;;;;;5052027;28;20677;-50
2021/01/20 12:44:16;;;;;;;1.93;1.73;;;12.30;50.90;;;;;;5051155;28;20649;-48
2021/01/20 12:46:42;;;;;;;6.80;3.03;;;12.40;51.10;;;;;;5051855;28;20640;-50
2021/01/20 12:49:09;;;;;;;6.37;2.30;;;12.50;50.80;;;;;;5052180;28;21058;-50
2021/01/20 12:51:37;;;;;;;1.93;1.73;;;12.50;50.30;;;;;;5051247;28;20692;-49
2021/01/20 12:54:05;;;;;;;3.73;2.97;;;12.60;50.50;;;;;;5051428;28;20675;-48
2021/01/20 12:56:31;;;;;;;3.47;2.60;;;12.80;50.20;;;;;;5051062;28;21177;-50
2021/01/20 12:58:58;;;;;;;3.30;1.53;;;12.90;49.60;;;;;;5051958;28;20622;-48